sensor_id;sensor_type;location;lat;lon;timestamp;pressure;altitude;pressure_sealevel;temperature;humidity
46412;BME280;32113;42.012;24.870;2024-01-07T00:02:13;97742.03;;;10.56;71.48
46412;BME280;32113;42.012;24.870;2024-01-07T00:04:40;97724.00;;;10.59;70.87
46412;BME280;32113;42.012;24.870;2024-01-07T00:07:05;97711.47;;;10.49;71.40
46412;BME280;32113;42.012;24.870;2024-01-07T00:09:31;97711.50;;;10.48;71.37
46412;BME280;32113;42.012;24.870;2024-01-07T00:11:56;97691.03;;;10.46;71.25
46412;BME280;32113;42.012;24.870;2024-01-07T00:14:21;97664.00;;;10.36;71.97
46412;BME280;32113;42.012;24.870;2024-01-07T00:16:47;97681.25;;;10.31;71.94
46412;BME280;32113;42.012;24.870;2024-01-07T00:19:12;97701.22;;;10.19;72.76
46412;BME280;32113;42.012;24.870;2024-01-07T00:21:38;97695.13;;;10.23;72.96
46412;BME280;32113;42.012;24.870;2024-01-07T00:24:04;97685.72;;;10.24;73.47
46412;BME280;32113;42.012;24.870;2024-01-07T00:26:29;97675.50;;;10.22;73.51
46412;BME280;32113;42.012;24.870;2024-01-07T00:28:55;97664.47;;;10.20;73.30
46412;BME280;32113;42.012;24.870;2024-01-07T00:31:20;97645.72;;;10.18;74.20
46412;BME280;32113;42.012;24.870;2024-01-07T00:33:45;97639.84;;;10.16;74.45
46412;BME280;32113;42.012;24.870;2024-01-07T00:36:11;97652.16;;;10.03;74.75
46412;BME280;32113;42.012;24.870;2024-01-07T00:38:36;97668.66;;;9.94;75.72
46412;BME280;32113;42.012;24.870;2024-01-07T00:41:01;97657.63;;;9.92;75.99
46412;BME280;32113;42.012;24.870;2024-01-07T00:43:27;97655.06;;;9.92;76.64
46412;BME280;32113;42.012;24.870;2024-01-07T00:45:52;97657.53;;;9.95;76.84
46412;BME280;32113;42.012;24.870;2024-01-07T00:48:18;97661.59;;;10.03;76.62
46412;BME280;32113;42.012;24.870;2024-01-07T00:50:43;97653.59;;;10.14;76.45
46412;BME280;32113;42.012;24.870;2024-01-07T00:53:08;97661.91;;;10.20;75.86
46412;BME280;32113;42.012;24.870;2024-01-07T00:55:34;97658.50;;;10.20;76.11
46412;BME280;32113;42.012;24.870;2024-01-07T00:58:02;97658.56;;;10.18;76.02
46412;BME280;32113;42.012;24.870;2024-01-07T01:00:28;97645.84;;;10.15;76.42
46412;BME280;32113;42.012;24.870;2024-01-07T01:02:54;97630.28;;;10.21;76.38
46412;BME280;32113;42.012;24.870;2024-01-07T01:05:19;97610.25;;;10.33;76.42
46412;BME280;32113;42.012;24.870;2024-01-07T01:07:45;97623.34;;;10.23;76.53
46412;BME280;32113;42.012;24.870;2024-01-07T01:10:10;97582.34;;;10.23;77.64
46412;BME280;32113;42.012;24.870;2024-01-07T01:12:36;97553.16;;;10.28;77.51
46412;BME280;32113;42.012;24.870;2024-01-07T01:15:01;97535.81;;;10.36;77.71
46412;BME280;32113;42.012;24.870;2024-01-07T01:17:26;97543.50;;;10.36;77.40
46412;BME280;32113;42.012;24.870;2024-01-07T01:19:52;97534.09;;;10.36;77.80
46412;BME280;32113;42.012;24.870;2024-01-07T01:22:17;97519.28;;;10.45;77.75
46412;BME280;32113;42.012;24.870;2024-01-07T01:24:43;97514.16;;;10.45;77.68
46412;BME280;32113;42.012;24.870;2024-01-07T01:27:13;97516.69;;;10.46;76.98
46412;BME280;32113;42.012;24.870;2024-01-07T01:29:40;97514.03;;;10.49;77.30
46412;BME280;32113;42.012;24.870;2024-01-07T01:32:06;97505.53;;;10.47;76.96
46412;BME280;32113;42.012;24.870;2024-01-07T01:34:32;97504.53;;;10.51;76.49
46412;BME280;32113;42.012;24.870;2024-01-07T01:36:57;97492.50;;;10.54;77.04
46412;BME280;32113;42.012;24.870;2024-01-07T01:39:22;97495.88;;;10.54;76.64
46412;BME280;32113;42.012;24.870;2024-01-07T01:41:48;97504.44;;;10.55;77.69
46412;BME280;32113;42.012;24.870;2024-01-07T01:44:13;97484.63;;;10.58;77.53
46412;BME280;32113;42.012;24.870;2024-01-07T01:46:39;97481.16;;;10.59;77.53
46412;BME280;32113;42.012;24.870;2024-01-07T01:49:04;97469.16;;;10.61;77.72
46412;BME280;32113;42.012;24.870;2024-01-07T01:51:30;97465.78;;;10.59;77.68
46412;BME280;32113;42.012;24.870;2024-01-07T01:53:55;97465.72;;;10.61;77.42
46412;BME280;32113;42.012;24.870;2024-01-07T01:56:24;97457.31;;;10.57;77.57
46412;BME280;32113;42.012;24.870;2024-01-07T01:58:51;97447.97;;;10.56;77.24
46412;BME280;32113;42.012;24.870;2024-01-07T02:01:17;97429.41;;;10.49;78.22
46412;BME280;32113;42.012;24.870;2024-01-07T02:03:43;97431.78;;;10.54;78.71
46412;BME280;32113;42.012;24.870;2024-01-07T02:06:09;97425.78;;;10.55;78.59
46412;BME280;32113;42.012;24.870;2024-01-07T02:08:35;97387.19;;;10.58;78.44
46412;BME280;32113;42.012;24.870;2024-01-07T02:11:14;97367.56;;;10.57;78.18
46412;BME280;32113;42.012;24.870;2024-01-07T02:13:40;97342.69;;;10.59;78.18
46412;BME280;32113;42.012;24.870;2024-01-07T02:16:05;97345.19;;;10.61;78.87
46412;BME280;32113;42.012;24.870;2024-01-07T02:18:30;97336.25;;;10.71;78.25
46412;BME280;32113;42.012;24.870;2024-01-07T02:20:56;97327.69;;;10.72;78.22
46412;BME280;32113;42.012;24.870;2024-01-07T02:23:21;97343.19;;;10.69;78.52
46412;BME280;32113;42.012;24.870;2024-01-07T02:25:47;97335.88;;;10.58;78.56
46412;BME280;32113;42.012;24.870;2024-01-07T02:28:12;97332.91;;;10.47;79.44
46412;BME280;32113;42.012;24.870;2024-01-07T02:30:37;97331.28;;;10.44;79.49
46412;BME280;32113;42.012;24.870;2024-01-07T02:33:04;97327.91;;;10.42;79.91
46412;BME280;32113;42.012;24.870;2024-01-07T02:35:29;97318.47;;;10.44;80.38
46412;BME280;32113;42.012;24.870;2024-01-07T02:37:55;97308.28;;;10.41;80.99
46412;BME280;32113;42.012;24.870;2024-01-07T02:40:20;97298.81;;;10.43;81.20
46412;BME280;32113;42.012;24.870;2024-01-07T02:42:46;97290.88;;;10.51;81.44
46412;BME280;32113;42.012;24.870;2024-01-07T02:45:11;97289.72;;;10.58;81.91
46412;BME280;32113;42.012;24.870;2024-01-07T02:47:36;97296.47;;;10.61;83.69
46412;BME280;32113;42.012;24.870;2024-01-07T02:50:02;97309.25;;;10.62;84.38
46412;BME280;32113;42.012;24.870;2024-01-07T02:52:28;97346.50;;;10.71;83.39
46412;BME280;32113;42.012;24.870;2024-01-07T02:54:53;97340.66;;;10.68;83.28
46412;BME280;32113;42.012;24.870;2024-01-07T02:57:19;97333.16;;;10.63;83.51
46412;BME280;32113;42.012;24.870;2024-01-07T02:59:44;97323.50;;;10.70;83.57
46412;BME280;32113;42.012;24.870;2024-01-07T03:02:09;97310.50;;;10.74;83.79
46412;BME280;32113;42.012;24.870;2024-01-07T03:04:35;97293.13;;;10.81;83.47
46412;BME280;32113;42.012;24.870;2024-01-07T03:07:00;97282.81;;;10.83;84.30
46412;BME280;32113;42.012;24.870;2024-01-07T03:09:25;97291.03;;;10.91;84.43
46412;BME280;32113;42.012;24.870;2024-01-07T03:11:51;97296.03;;;10.94;83.94
46412;BME280;32113;42.012;24.870;2024-01-07T03:14:16;97303.50;;;11.00;83.90
46412;BME280;32113;42.012;24.870;2024-01-07T03:16:45;97305.63;;;11.11;83.23
46412;BME280;32113;42.012;24.870;2024-01-07T03:19:10;97292.56;;;11.17;82.22
46412;BME280;32113;42.012;24.870;2024-01-07T03:21:36;97291.91;;;11.12;82.93
46412;BME280;32113;42.012;24.870;2024-01-07T03:24:01;97297.09;;;11.11;83.79
46412;BME280;32113;42.012;24.870;2024-01-07T03:26:29;97314.41;;;11.06;83.87
46412;BME280;32113;42.012;24.870;2024-01-07T03:28:55;97318.00;;;11.01;84.35
46412;BME280;32113;42.012;24.870;2024-01-07T03:31:24;97321.47;;;11.00;84.68
46412;BME280;32113;42.012;24.870;2024-01-07T03:33:50;97321.09;;;11.10;84.81
46412;BME280;32113;42.012;24.870;2024-01-07T03:36:15;97318.28;;;11.16;84.94
46412;BME280;32113;42.012;24.870;2024-01-07T03:38:41;97318.03;;;11.22;85.70
46412;BME280;32113;42.012;24.870;2024-01-07T03:41:06;97314.50;;;11.25;85.33
46412;BME280;32113;42.012;24.870;2024-01-07T03:43:32;97312.56;;;11.30;85.09
46412;BME280;32113;42.012;24.870;2024-01-07T03:45:58;97300.19;;;11.19;86.75
46412;BME280;32113;42.012;24.870;2024-01-07T03:48:24;97279.00;;;11.14;87.91
46412;BME280;32113;42.012;24.870;2024-01-07T03:50:50;97275.50;;;11.16;87.77
46412;BME280;32113;42.012;24.870;2024-01-07T03:53:15;97269.69;;;11.11;88.45
46412;BME280;32113;42.012;24.870;2024-01-07T03:55:41;97275.03;;;11.07;89.82
46412;BME280;32113;42.012;24.870;2024-01-07T03:58:07;97271.53;;;11.08;89.80
46412;BME280;32113;42.012;24.870;2024-01-07T04:00:33;97271.53;;;11.08;89.19
46412;BME280;32113;42.012;24.870;2024-01-07T04:02:58;97265.59;;;11.07;89.27
46412;BME280;32113;42.012;24.870;2024-01-07T04:05:24;97244.09;;;11.10;89.08
46412;BME280;32113;42.012;24.870;2024-01-07T04:07:49;97232.09;;;11.10;89.46
46412;BME280;32113;42.012;24.870;2024-01-07T04:10:16;97199.00;;;11.04;89.59
46412;BME280;32113;42.012;24.870;2024-01-07T04:12:42;97179.22;;;11.06;89.59
46412;BME280;32113;42.012;24.870;2024-01-07T04:15:07;97209.53;;;10.98;89.41
46412;BME280;32113;42.012;24.870;2024-01-07T04:17:33;97241.66;;;10.63;93.28
46412;BME280;32113;42.012;24.870;2024-01-07T04:19:58;97241.06;;;10.57;93.83
46412;BME280;32113;42.012;24.870;2024-01-07T04:22:24;97229.25;;;10.52;95.16
46412;BME280;32113;42.012;24.870;2024-01-07T04:24:49;97221.66;;;10.51;96.36
46412;BME280;32113;42.012;24.870;2024-01-07T04:27:14;97200.75;;;10.60;96.71
46412;BME280;32113;42.012;24.870;2024-01-07T04:29:40;97208.16;;;10.68;95.37
46412;BME280;32113;42.012;24.870;2024-01-07T04:32:05;97217.56;;;10.68;95.50
46412;BME280;32113;42.012;24.870;2024-01-07T04:34:31;97227.22;;;10.61;95.67
46412;BME280;32113;42.012;24.870;2024-01-07T04:36:57;97268.91;;;10.66;96.01
46412;BME280;32113;42.012;24.870;2024-01-07T04:39:22;97260.41;;;10.66;97.30
46412;BME280;32113;42.012;24.870;2024-01-07T04:41:48;97266.13;;;10.72;98.35
46412;BME280;32113;42.012;24.870;2024-01-07T04:44:13;97250.59;;;10.75;99.96
46412;BME280;32113;42.012;24.870;2024-01-07T04:46:39;97224.50;;;10.86;100.00
46412;BME280;32113;42.012;24.870;2024-01-07T04:49:05;97243.06;;;10.93;99.17
46412;BME280;32113;42.012;24.870;2024-01-07T04:51:32;97231.56;;;11.02;98.61
46412;BME280;32113;42.012;24.870;2024-01-07T04:53:57;97229.47;;;11.12;97.83
46412;BME280;32113;42.012;24.870;2024-01-07T04:56:23;97227.34;;;11.22;95.10
46412;BME280;32113;42.012;24.870;2024-01-07T04:58:48;97227.25;;;11.23;93.33
46412;BME280;32113;42.012;24.870;2024-01-07T05:01:14;97233.84;;;11.10;92.27
46412;BME280;32113;42.012;24.870;2024-01-07T05:03:39;97244.00;;;10.90;93.16
46412;BME280;32113;42.012;24.870;2024-01-07T05:06:05;97238.13;;;10.88;91.70
46412;BME280;32113;42.012;24.870;2024-01-07T05:08:30;97237.91;;;10.93;91.16
46412;BME280;32113;42.012;24.870;2024-01-07T05:10:56;97247.25;;;10.73;91.53
46412;BME280;32113;42.012;24.870;2024-01-07T05:13:22;97267.78;;;10.51;94.14
46412;BME280;32113;42.012;24.870;2024-01-07T05:15:47;97261.66;;;10.31;96.25
46412;BME280;32113;42.012;24.870;2024-01-07T05:18:20;97263.41;;;10.31;97.83
46412;BME280;32113;42.012;24.870;2024-01-07T05:20:46;97241.69;;;10.39;97.23
46412;BME280;32113;42.012;24.870;2024-01-07T05:23:11;97246.00;;;10.39;96.04
46412;BME280;32113;42.012;24.870;2024-01-07T05:25:37;97253.53;;;10.44;94.23
46412;BME280;32113;42.012;24.870;2024-01-07T05:28:02;97260.16;;;10.49;94.39
46412;BME280;32113;42.012;24.870;2024-01-07T05:30:28;97260.03;;;10.52;91.09
46412;BME280;32113;42.012;24.870;2024-01-07T05:32:53;97252.75;;;10.64;88.78
46412;BME280;32113;42.012;24.870;2024-01-07T05:35:18;97247.31;;;10.72;87.51
46412;BME280;32113;42.012;24.870;2024-01-07T05:37:44;97249.72;;;10.76;87.79
46412;BME280;32113;42.012;24.870;2024-01-07T05:40:10;97251.97;;;10.62;88.81
46412;BME280;32113;42.012;24.870;2024-01-07T05:42:35;97241.38;;;10.49;89.80
46412;BME280;32113;42.012;24.870;2024-01-07T05:45:01;97241.94;;;10.33;90.73
46412;BME280;32113;42.012;24.870;2024-01-07T05:47:28;97253.09;;;10.32;91.34
46412;BME280;32113;42.012;24.870;2024-01-07T05:49:53;97237.81;;;10.29;91.77
46412;BME280;32113;42.012;24.870;2024-01-07T05:52:18;97219.56;;;10.15;92.50
46412;BME280;32113;42.012;24.870;2024-01-07T05:54:44;97185.25;;;9.96;94.69
46412;BME280;32113;42.012;24.870;2024-01-07T05:57:11;97198.25;;;9.90;94.76
46412;BME280;32113;42.012;24.870;2024-01-07T05:59:37;97192.44;;;9.86;93.89
46412;BME280;32113;42.012;24.870;2024-01-07T06:02:03;97179.91;;;9.79;93.00
46412;BME280;32113;42.012;24.870;2024-01-07T06:04:28;97173.84;;;9.81;92.57
46412;BME280;32113;42.012;24.870;2024-01-07T06:06:53;97177.22;;;9.82;92.70
46412;BME280;32113;42.012;24.870;2024-01-07T06:09:19;97179.38;;;9.93;93.88
46412;BME280;32113;42.012;24.870;2024-01-07T06:11:44;97194.91;;;10.12;90.71
46412;BME280;32113;42.012;24.870;2024-01-07T06:14:10;97228.28;;;10.33;88.39
46412;BME280;32113;42.012;24.870;2024-01-07T06:16:35;97245.72;;;10.47;87.52
46412;BME280;32113;42.012;24.870;2024-01-07T06:19:00;97255.00;;;10.72;85.68
46412;BME280;32113;42.012;24.870;2024-01-07T06:21:26;97254.38;;;10.87;84.99
46412;BME280;32113;42.012;24.870;2024-01-07T06:23:51;97260.84;;;10.98;82.24
46412;BME280;32113;42.012;24.870;2024-01-07T06:26:17;97247.81;;;11.02;81.90
46412;BME280;32113;42.012;24.870;2024-01-07T06:28:42;97225.72;;;10.98;80.71
46412;BME280;32113;42.012;24.870;2024-01-07T06:31:08;97211.94;;;11.01;80.81
46412;BME280;32113;42.012;24.870;2024-01-07T06:33:33;97210.34;;;10.98;80.45
46412;BME280;32113;42.012;24.870;2024-01-07T06:36:00;97207.72;;;11.00;78.96
46412;BME280;32113;42.012;24.870;2024-01-07T06:38:25;97213.53;;;11.03;76.00
46412;BME280;32113;42.012;24.870;2024-01-07T06:40:51;97224.31;;;11.12;76.34
46412;BME280;32113;42.012;24.870;2024-01-07T06:43:16;97213.66;;;11.21;77.42
46412;BME280;32113;42.012;24.870;2024-01-07T06:45:42;97198.63;;;11.33;77.44
46412;BME280;32113;42.012;24.870;2024-01-07T06:48:08;97206.50;;;11.49;75.78
46412;BME280;32113;42.012;24.870;2024-01-07T06:50:34;97208.81;;;11.55;75.15
46412;BME280;32113;42.012;24.870;2024-01-07T06:52:59;97215.34;;;11.62;75.48
46412;BME280;32113;42.012;24.870;2024-01-07T06:55:25;97217.56;;;11.70;75.36
46412;BME280;32113;42.012;24.870;2024-01-07T06:57:50;97214.94;;;11.72;75.48
46412;BME280;32113;42.012;24.870;2024-01-07T07:00:16;97221.25;;;11.83;74.66
46412;BME280;32113;42.012;24.870;2024-01-07T07:02:43;97217.72;;;11.86;73.90
46412;BME280;32113;42.012;24.870;2024-01-07T07:05:08;97231.28;;;11.90;73.75
46412;BME280;32113;42.012;24.870;2024-01-07T07:07:34;97239.56;;;11.96;73.67
46412;BME280;32113;42.012;24.870;2024-01-07T07:09:59;97249.97;;;11.93;74.28
46412;BME280;32113;42.012;24.870;2024-01-07T07:12:25;97238.66;;;11.98;74.68
46412;BME280;32113;42.012;24.870;2024-01-07T07:14:50;97259.50;;;12.11;73.79
46412;BME280;32113;42.012;24.870;2024-01-07T07:17:15;97259.44;;;12.12;74.20
46412;BME280;32113;42.012;24.870;2024-01-07T07:19:41;97253.94;;;12.20;75.21
46412;BME280;32113;42.012;24.870;2024-01-07T07:22:07;97252.97;;;12.22;75.74
46412;BME280;32113;42.012;24.870;2024-01-07T07:24:32;97244.16;;;12.28;75.46
46412;BME280;32113;42.012;24.870;2024-01-07T07:26:58;97249.63;;;12.40;75.51
46412;BME280;32113;42.012;24.870;2024-01-07T07:29:23;97251.06;;;12.45;74.84
46412;BME280;32113;42.012;24.870;2024-01-07T07:31:49;97244.94;;;12.48;74.75
46412;BME280;32113;42.012;24.870;2024-01-07T07:34:14;97236.25;;;12.51;73.55
46412;BME280;32113;42.012;24.870;2024-01-07T07:36:40;97235.22;;;12.55;71.63
46412;BME280;32113;42.012;24.870;2024-01-07T07:39:06;97234.22;;;12.57;72.00
46412;BME280;32113;42.012;24.870;2024-01-07T07:41:32;97232.13;;;12.66;72.53
46412;BME280;32113;42.012;24.870;2024-01-07T07:43:57;97227.06;;;12.82;71.45
46412;BME280;32113;42.012;24.870;2024-01-07T07:46:23;97245.53;;;12.90;70.77
46412;BME280;32113;42.012;24.870;2024-01-07T07:48:48;97246.75;;;13.00;70.99
46412;BME280;32113;42.012;24.870;2024-01-07T07:51:14;97244.41;;;13.13;71.18
46412;BME280;32113;42.012;24.870;2024-01-07T07:53:40;97245.53;;;13.25;71.93
46412;BME280;32113;42.012;24.870;2024-01-07T07:56:05;97222.63;;;13.37;72.74
46412;BME280;32113;42.012;24.870;2024-01-07T07:58:31;97219.16;;;13.38;72.58
46412;BME280;32113;42.012;24.870;2024-01-07T08:00:56;97229.75;;;13.32;73.04
46412;BME280;32113;42.012;24.870;2024-01-07T08:03:23;97220.91;;;13.37;71.28
46412;BME280;32113;42.012;24.870;2024-01-07T08:05:48;97224.69;;;13.48;70.41
46412;BME280;32113;42.012;24.870;2024-01-07T08:08:15;97225.22;;;13.55;69.60
46412;BME280;32113;42.012;24.870;2024-01-07T08:10:42;97227.16;;;13.67;67.74
46412;BME280;32113;42.012;24.870;2024-01-07T08:13:08;97229.41;;;13.73;66.59
46412;BME280;32113;42.012;24.870;2024-01-07T08:15:34;97230.66;;;13.82;65.43
46412;BME280;32113;42.012;24.870;2024-01-07T08:17:59;97222.28;;;13.95;65.02
46412;BME280;32113;42.012;24.870;2024-01-07T08:20:25;97224.28;;;14.05;66.03
46412;BME280;32113;42.012;24.870;2024-01-07T08:22:50;97223.03;;;14.13;64.54
46412;BME280;32113;42.012;24.870;2024-01-07T08:25:16;97229.38;;;14.23;65.74
46412;BME280;32113;42.012;24.870;2024-01-07T08:27:41;97223.22;;;14.26;66.19
46412;BME280;32113;42.012;24.870;2024-01-07T08:30:07;97237.41;;;14.33;66.00
46412;BME280;32113;42.012;24.870;2024-01-07T08:32:33;97240.75;;;14.51;64.26
46412;BME280;32113;42.012;24.870;2024-01-07T08:35:00;97247.06;;;14.62;64.43
46412;BME280;32113;42.012;24.870;2024-01-07T08:37:26;97249.66;;;14.78;64.52
46412;BME280;32113;42.012;24.870;2024-01-07T08:39:51;97241.50;;;15.00;64.83
46412;BME280;32113;42.012;24.870;2024-01-07T08:42:17;97232.59;;;15.20;65.10
46412;BME280;32113;42.012;24.870;2024-01-07T08:44:42;97230.69;;;15.39;64.20
46412;BME280;32113;42.012;24.870;2024-01-07T08:47:07;97236.69;;;15.54;63.61
46412;BME280;32113;42.012;24.870;2024-01-07T08:49:33;97242.69;;;15.69;64.27
46412;BME280;32113;42.012;24.870;2024-01-07T08:51:58;97243.41;;;15.85;61.61
46412;BME280;32113;42.012;24.870;2024-01-07T08:54:24;97239.28;;;15.97;61.02
46412;BME280;32113;42.012;24.870;2024-01-07T08:56:49;97245.28;;;16.12;61.46
46412;BME280;32113;42.012;24.870;2024-01-07T08:59:15;97239.69;;;16.19;62.42
46412;BME280;32113;42.012;24.870;2024-01-07T09:01:40;97239.66;;;16.33;61.52
46412;BME280;32113;42.012;24.870;2024-01-07T09:04:06;97230.88;;;16.36;61.47
46412;BME280;32113;42.012;24.870;2024-01-07T09:06:31;97227.59;;;16.47;61.34
46412;BME280;32113;42.012;24.870;2024-01-07T09:08:57;97236.84;;;16.51;61.16
46412;BME280;32113;42.012;24.870;2024-01-07T09:11:23;97229.63;;;16.56;60.34
46412;BME280;32113;42.012;24.870;2024-01-07T09:13:49;97230.44;;;16.57;58.00
46412;BME280;32113;42.012;24.870;2024-01-07T09:16:15;97221.41;;;16.49;59.03
46412;BME280;32113;42.012;24.870;2024-01-07T09:18:41;97219.59;;;16.37;60.40
46412;BME280;32113;42.012;24.870;2024-01-07T09:21:09;97222.56;;;16.31;60.16
46412;BME280;32113;42.012;24.870;2024-01-07T09:23:35;97216.16;;;16.23;60.32
46412;BME280;32113;42.012;24.870;2024-01-07T09:26:01;97208.50;;;16.07;60.72
46412;BME280;32113;42.012;24.870;2024-01-07T09:28:26;97200.84;;;15.91;60.93
46412;BME280;32113;42.012;24.870;2024-01-07T09:30:52;97199.53;;;15.84;61.20
46412;BME280;32113;42.012;24.870;2024-01-07T09:33:17;97200.66;;;15.80;61.66
46412;BME280;32113;42.012;24.870;2024-01-07T09:35:43;97200.78;;;15.78;61.58
46412;BME280;32113;42.012;24.870;2024-01-07T09:38:09;97201.78;;;15.75;61.00
46412;BME280;32113;42.012;24.870;2024-01-07T09:40:34;97189.69;;;15.76;59.94
46412;BME280;32113;42.012;24.870;2024-01-07T09:43:00;97184.06;;;15.69;60.56
46412;BME280;32113;42.012;24.870;2024-01-07T09:45:26;97186.56;;;15.71;60.52
46412;BME280;32113;42.012;24.870;2024-01-07T09:47:51;97183.88;;;15.72;60.02
46412;BME280;32113;42.012;24.870;2024-01-07T09:50:17;97183.13;;;15.70;60.54
46412;BME280;32113;42.012;24.870;2024-01-07T09:52:45;97174.25;;;15.74;60.96
46412;BME280;32113;42.012;24.870;2024-01-07T09:55:27;97171.41;;;15.79;61.13
46412;BME280;32113;42.012;24.870;2024-01-07T09:57:54;97163.56;;;15.81;60.69
46412;BME280;32113;42.012;24.870;2024-01-07T10:00:20;97152.47;;;15.79;60.14
46412;BME280;32113;42.012;24.870;2024-01-07T10:02:45;97152.66;;;15.75;60.44
46412;BME280;32113;42.012;24.870;2024-01-07T10:05:11;97138.91;;;15.75;60.81
46412;BME280;32113;42.012;24.870;2024-01-07T10:07:36;97141.50;;;15.75;60.59
46412;BME280;32113;42.012;24.870;2024-01-07T10:10:17;97137.13;;;15.75;60.65
46412;BME280;32113;42.012;24.870;2024-01-07T10:12:46;97138.16;;;15.73;60.61
46412;BME280;32113;42.012;24.870;2024-01-07T10:15:12;97134.00;;;15.70;61.11
46412;BME280;32113;42.012;24.870;2024-01-07T10:17:38;97133.91;;;15.72;60.65
46412;BME280;32113;42.012;24.870;2024-01-07T10:20:05;97131.25;;;15.73;60.16
46412;BME280;32113;42.012;24.870;2024-01-07T10:22:35;97128.66;;;15.73;59.54
46412;BME280;32113;42.012;24.870;2024-01-07T10:25:01;97112.50;;;15.70;59.32
46412;BME280;32113;42.012;24.870;2024-01-07T10:27:27;97099.19;;;15.76;59.50
46412;BME280;32113;42.012;24.870;2024-01-07T10:29:52;97097.16;;;15.81;60.22
46412;BME280;32113;42.012;24.870;2024-01-07T10:32:20;97094.06;;;15.89;61.42
46412;BME280;32113;42.012;24.870;2024-01-07T10:34:46;97093.97;;;15.90;62.51
46412;BME280;32113;42.012;24.870;2024-01-07T10:37:15;97102.31;;;15.96;62.31
46412;BME280;32113;42.012;24.870;2024-01-07T10:39:40;97094.59;;;16.09;61.43
46412;BME280;32113;42.012;24.870;2024-01-07T10:42:06;97073.25;;;16.05;60.17
46412;BME280;32113;42.012;24.870;2024-01-07T10:44:32;97070.75;;;16.03;60.46
46412;BME280;32113;42.012;24.870;2024-01-07T10:46:59;97069.97;;;16.03;58.30
46412;BME280;32113;42.012;24.870;2024-01-07T10:49:26;97064.16;;;15.99;58.54
46412;BME280;32113;42.012;24.870;2024-01-07T10:52:06;97048.28;;;15.91;58.17
46412;BME280;32113;42.012;24.870;2024-01-07T10:54:34;97048.38;;;15.89;57.91
46412;BME280;32113;42.012;24.870;2024-01-07T10:57:04;97064.16;;;15.85;57.82
46412;BME280;32113;42.012;24.870;2024-01-07T10:59:33;97053.28;;;15.80;58.01
46412;BME280;32113;42.012;24.870;2024-01-07T11:01:59;97048.31;;;15.76;58.89
46412;BME280;32113;42.012;24.870;2024-01-07T11:04:39;97049.97;;;16.05;58.75
46412;BME280;32113;42.012;24.870;2024-01-07T11:07:48;97055.94;;;16.33;56.90
46412;BME280;32113;42.012;24.870;2024-01-07T11:10:43;97054.28;;;16.32;56.53
46412;BME280;32113;42.012;24.870;2024-01-07T11:13:31;97060.09;;;16.36;55.43
46412;BME280;32113;42.012;24.870;2024-01-07T11:15:57;97048.91;;;16.35;54.97
46412;BME280;32113;42.012;24.870;2024-01-07T11:18:23;97051.19;;;16.40;54.97
46412;BME280;32113;42.012;24.870;2024-01-07T11:20:49;97056.97;;;16.31;54.96
46412;BME280;32113;42.012;24.870;2024-01-07T11:23:28;97057.28;;;16.26;56.60
46412;BME280;32113;42.012;24.870;2024-01-07T11:25:56;97065.41;;;16.07;59.48
46412;BME280;32113;42.012;24.870;2024-01-07T11:28:45;97067.44;;;15.74;60.18
46412;BME280;32113;42.012;24.870;2024-01-07T11:31:15;97066.25;;;15.65;60.46
46412;BME280;32113;42.012;24.870;2024-01-07T11:33:45;97066.13;;;15.54;60.82
46412;BME280;32113;42.012;24.870;2024-01-07T11:36:12;97055.41;;;15.45;61.11
46412;BME280;32113;42.012;24.870;2024-01-07T11:38:41;97057.72;;;15.35;61.76
46412;BME280;32113;42.012;24.870;2024-01-07T11:41:07;97061.19;;;15.21;62.66
46412;BME280;32113;42.012;24.870;2024-01-07T11:43:34;97057.03;;;15.19;63.01
46412;BME280;32113;42.012;24.870;2024-01-07T11:46:00;97061.28;;;15.20;63.09
46412;BME280;32113;42.012;24.870;2024-01-07T11:48:26;97068.78;;;15.10;62.66
46412;BME280;32113;42.012;24.870;2024-01-07T11:50:52;97060.63;;;15.16;62.23
46412;BME280;32113;42.012;24.870;2024-01-07T11:53:17;97053.44;;;15.21;62.39
46412;BME280;32113;42.012;24.870;2024-01-07T11:55:44;97057.97;;;15.18;61.26
46412;BME280;32113;42.012;24.870;2024-01-07T11:58:10;97056.31;;;15.17;60.92
46412;BME280;32113;42.012;24.870;2024-01-07T12:00:35;97060.47;;;15.19;61.07
46412;BME280;32113;42.012;24.870;2024-01-07T12:03:02;97056.94;;;15.20;60.97
46412;BME280;32113;42.012;24.870;2024-01-07T12:05:28;97049.75;;;15.26;60.31
46412;BME280;32113;42.012;24.870;2024-01-07T12:07:54;97040.66;;;15.33;59.70
46412;BME280;32113;42.012;24.870;2024-01-07T12:10:19;97043.47;;;15.30;59.58
46412;BME280;32113;42.012;24.870;2024-01-07T12:12:45;97037.19;;;15.34;59.94
46412;BME280;32113;42.012;24.870;2024-01-07T12:15:11;97044.81;;;15.35;59.81
46412;BME280;32113;42.012;24.870;2024-01-07T12:17:40;97044.53;;;15.40;59.62
46412;BME280;32113;42.012;24.870;2024-01-07T12:20:07;97044.63;;;15.39;59.52
46412;BME280;32113;42.012;24.870;2024-01-07T12:22:37;97040.22;;;15.41;59.88
46412;BME280;32113;42.012;24.870;2024-01-07T12:25:03;97042.88;;;15.39;60.16
46412;BME280;32113;42.012;24.870;2024-01-07T12:27:29;97040.00;;;15.44;60.46
46412;BME280;32113;42.012;24.870;2024-01-07T12:29:58;97039.72;;;15.48;60.15
46412;BME280;32113;42.012;24.870;2024-01-07T12:32:30;97039.91;;;15.45;58.01
46412;BME280;32113;42.012;24.870;2024-01-07T12:34:59;97043.78;;;15.53;57.42
46412;BME280;32113;42.012;24.870;2024-01-07T12:37:28;97042.66;;;15.57;57.55
46412;BME280;32113;42.012;24.870;2024-01-07T12:39:54;97042.66;;;15.57;57.73
46412;BME280;32113;42.012;24.870;2024-01-07T12:42:20;97039.78;;;15.61;57.26
46412;BME280;32113;42.012;24.870;2024-01-07T12:44:48;97050.75;;;15.65;56.24
46412;BME280;32113;42.012;24.870;2024-01-07T12:47:14;97040.22;;;15.68;55.76